Pontiac, IL

1:16 AM CDT on May 27, 2015 (GMT -0500)
MesoWest | | Change Station
CLOSE
Current Station
Personal Weather Station
Location: Pontiac, IL
Elevation: 648 ft
Nearby Weather Stations

Elev 648 ft 40.87 °N, 88.67 °W | Updated 51 minutes ago

Partly Cloudy
Partly Cloudy
73 °F
Feels Like 72 °F
N
21
Wind Variable Wind from WNW
Gusts 27.0 mph

Today
High -- | Low -- °F
--% Chance of Precip.
Yesterday
High -- | Low -- °F
Precip. -- in
5:28 AM 8:15 PM
Waxing Gibbous, 64% visible
Pressure 29.90 in
Visibility 10.0 miles
Clouds Mostly Cloudy 9000 ft
Heat Index 72 °F
Dew Point 69 °F
Humidity 87%
Rainfall in
Snow Depth Not available.
UV 0 out of 12
Pollen 6.90 out of 12
Air Quality Not available.
Flu Activity Sporadic
METAR KPNT 270555Z AUTO 21014G19KT 10SM BKN090 21/18 A2990 RMK AO2 T02120175 10237 20210 402570188

More Conditions Fewer Conditions

Pressure 29.90 in
Visibility 10.0 miles
Clouds Mostly Cloudy 9000 ft
Heat Index 72 °F
Dew Point 69 °F
Humidity 87%
Rainfall in
Snow Depth Not available.
UV 0 out of 12
Pollen 6.90 out of 12
Air Quality Not available.
Flu Activity Sporadic
METAR KPNT 270555Z AUTO 21014G19KT 10SM BKN090 21/18 A2990 RMK AO2 T02120175 10237 20210 402570188

More Conditions Fewer Conditions

10-Day Weather Forecast

Almanac

Astronomy

May. 27, 2015 Rise Set
Actual Time
Civil Twilight
Nautical Twilight
Astronomical Twilight
Moon
Length of Visible Light
Length of Day
Tomorrow will be .
, % of the Moon is Illuminated

Today's Extremes

State Highs State Lows

Community

WunderPhotos

Upload Photos

1,824,617 photos uploaded!

WunderBlogs® & News

Nearby

Air Quality

  Air Quality AQ Index Pollutant
Not available.

Snow Depth

Station Depth Elevation

Earthquake Activity

City Distance Mag. Time & Date
Minimum magnitude displayed is 2.5.

Coastal Water Temperatures

Place Temperature

Stations

Nearby Weather Stations

Station Location Temp. Windchill Dew Point Humidity Wind Precip. Elev Updated Type